sensor_id;sensor_type;location;lat;lon;timestamp;pressure;altitude;pressure_sealevel;temperature;humidity
7333;BME280;3707;43.618;25.342;2024-01-16T00:02:17;98489.13;;;8.01;95.63
7333;BME280;3707;43.618;25.342;2024-01-16T00:04:45;98393.69;;;7.25;96.75
7333;BME280;3707;43.618;25.342;2024-01-16T00:07:12;98504.59;;;7.72;98.44
7333;BME280;3707;43.618;25.342;2024-01-16T00:09:38;98496.84;;;7.63;99.60
7333;BME280;3707;43.618;25.342;2024-01-16T00:12:06;98502.88;;;7.65;100.00
7333;BME280;3707;43.618;25.342;2024-01-16T00:14:35;98492.56;;;7.56;100.00
7333;BME280;3707;43.618;25.342;2024-01-16T00:17:02;98428.03;;;7.15;100.00
7333;BME280;3707;43.618;25.342;2024-01-16T00:19:29;98526.94;;;7.64;100.00
7333;BME280;3707;43.618;25.342;2024-01-16T00:21:57;98525.22;;;7.55;100.00
7333;BME280;3707;43.618;25.342;2024-01-16T00:24:25;98513.09;;;7.25;100.00
7333;BME280;3707;43.618;25.342;2024-01-16T00:26:52;98530.31;;;7.35;100.00
7333;BME280;3707;43.618;25.342;2024-01-16T00:29:19;98422.72;;;6.60;100.00
7333;BME280;3707;43.618;25.342;2024-01-16T00:31:46;98546.59;;;7.21;100.00
7333;BME280;3707;43.618;25.342;2024-01-16T00:34:13;98589.53;;;7.17;100.00
7333;BME280;3707;43.618;25.342;2024-01-16T00:36:40;98549.88;;;6.89;100.00
7333;BME280;3707;43.618;25.342;2024-01-16T00:39:08;98603.28;;;7.21;100.00
7333;BME280;3707;43.618;25.342;2024-01-16T00:41:35;98605.84;;;7.13;100.00
7333;BME280;3707;43.618;25.342;2024-01-16T00:44:01;98604.09;;;7.14;100.00
7333;BME280;3707;43.618;25.342;2024-01-16T00:46:28;98534.38;;;6.79;100.00
7333;BME280;3707;43.618;25.342;2024-01-16T00:48:55;98607.53;;;7.11;100.00
7333;BME280;3707;43.618;25.342;2024-01-16T00:51:22;98602.41;;;7.17;100.00
7333;BME280;3707;43.618;25.342;2024-01-16T00:53:49;98597.22;;;7.05;100.00
7333;BME280;3707;43.618;25.342;2024-01-16T00:56:17;98602.38;;;7.08;100.00
7333;BME280;3707;43.618;25.342;2024-01-16T00:58:44;98524.78;;;6.51;100.00
7333;BME280;3707;43.618;25.342;2024-01-16T01:01:10;98571.25;;;6.69;100.00
7333;BME280;3707;43.618;25.342;2024-01-16T01:03:37;98602.25;;;6.84;100.00
7333;BME280;3707;43.618;25.342;2024-01-16T01:06:04;98607.41;;;6.87;100.00
7333;BME280;3707;43.618;25.342;2024-01-16T01:08:31;98617.72;;;6.84;100.00
7333;BME280;3707;43.618;25.342;2024-01-16T01:10:58;98589.25;;;6.66;100.00
7333;BME280;3707;43.618;25.342;2024-01-16T01:13:26;98621.09;;;6.77;100.00
7333;BME280;3707;43.618;25.342;2024-01-16T01:15:53;98631.41;;;6.77;100.00
7333;BME280;3707;43.618;25.342;2024-01-16T01:18:20;98602.91;;;6.53;100.00
7333;BME280;3707;43.618;25.342;2024-01-16T01:20:48;98639.94;;;6.71;100.00
7333;BME280;3707;43.618;25.342;2024-01-16T01:23:14;98559.72;;;6.15;100.00
7333;BME280;3707;43.618;25.342;2024-01-16T01:25:41;98603.78;;;6.58;100.00
7333;BME280;3707;43.618;25.342;2024-01-16T01:28:08;98617.56;;;6.60;100.00
7333;BME280;3707;43.618;25.342;2024-01-16T01:30:37;98558.91;;;6.22;100.00
7333;BME280;3707;43.618;25.342;2024-01-16T01:33:04;98649.31;;;6.62;100.00
7333;BME280;3707;43.618;25.342;2024-01-16T01:35:31;98617.47;;;6.51;100.00
7333;BME280;3707;43.618;25.342;2024-01-16T01:37:58;98620.88;;;6.45;100.00
7333;BME280;3707;43.618;25.342;2024-01-16T01:40:25;98626.91;;;6.48;100.00
7333;BME280;3707;43.618;25.342;2024-01-16T01:42:51;98648.47;;;6.63;100.00
7333;BME280;3707;43.618;25.342;2024-01-16T01:45:18;98614.19;;;6.70;100.00
7333;BME280;3707;43.618;25.342;2024-01-16T01:47:46;98588.34;;;6.58;100.00
7333;BME280;3707;43.618;25.342;2024-01-16T01:50:14;98607.28;;;6.66;100.00
7333;BME280;3707;43.618;25.342;2024-01-16T01:52:42;98650.44;;;7.00;100.00
7333;BME280;3707;43.618;25.342;2024-01-16T01:55:12;98647.00;;;7.01;100.00
7333;BME280;3707;43.618;25.342;2024-01-16T01:57:40;98652.06;;;6.89;100.00
7333;BME280;3707;43.618;25.342;2024-01-16T02:00:09;98653.63;;;6.63;100.00
7333;BME280;3707;43.618;25.342;2024-01-16T02:02:36;98658.53;;;6.37;100.00
7333;BME280;3707;43.618;25.342;2024-01-16T02:05:05;98668.88;;;6.38;100.00
7333;BME280;3707;43.618;25.342;2024-01-16T02:07:33;98680.69;;;6.21;100.00
7333;BME280;3707;43.618;25.342;2024-01-16T02:10:01;98657.34;;;6.03;100.00
7333;BME280;3707;43.618;25.342;2024-01-16T02:12:28;98633.25;;;5.90;100.00
7333;BME280;3707;43.618;25.342;2024-01-16T02:14:55;98694.47;;;6.23;100.00
7333;BME280;3707;43.618;25.342;2024-01-16T02:17:22;98679.69;;;6.06;100.00
7333;BME280;3707;43.618;25.342;2024-01-16T02:19:49;98711.53;;;6.15;100.00
7333;BME280;3707;43.618;25.342;2024-01-16T02:22:20;98649.28;;;5.70;100.00
7333;BME280;3707;43.618;25.342;2024-01-16T02:24:49;98695.06;;;5.99;100.00
7333;BME280;3707;43.618;25.342;2024-01-16T02:27:16;98702.47;;;5.74;100.00
7333;BME280;3707;43.618;25.342;2024-01-16T02:29:43;98641.91;;;5.26;100.00
7333;BME280;3707;43.618;25.342;2024-01-16T02:32:10;98758.78;;;5.56;100.00
7333;BME280;3707;43.618;25.342;2024-01-16T02:34:38;98729.97;;;5.16;100.00
7333;BME280;3707;43.618;25.342;2024-01-16T02:37:04;98774.38;;;5.11;100.00
7333;BME280;3707;43.618;25.342;2024-01-16T02:39:31;98728.78;;;4.43;100.00
7333;BME280;3707;43.618;25.342;2024-01-16T02:41:59;98760.50;;;4.45;100.00
7333;BME280;3707;43.618;25.342;2024-01-16T02:44:26;98822.13;;;4.48;100.00
7333;BME280;3707;43.618;25.342;2024-01-16T02:46:53;98810.53;;;4.25;100.00
7333;BME280;3707;43.618;25.342;2024-01-16T02:49:20;98828.56;;;4.28;100.00
7333;BME280;3707;43.618;25.342;2024-01-16T02:51:46;98825.88;;;4.21;100.00
7333;BME280;3707;43.618;25.342;2024-01-16T02:54:14;98798.50;;;4.21;100.00
7333;BME280;3707;43.618;25.342;2024-01-16T02:56:41;98747.66;;;4.00;100.00
7333;BME280;3707;43.618;25.342;2024-01-16T02:59:09;98793.44;;;4.26;100.00
7333;BME280;3707;43.618;25.342;2024-01-16T03:01:36;98822.50;;;4.25;100.00
7333;BME280;3707;43.618;25.342;2024-01-16T03:04:03;98877.00;;;4.55;100.00
7333;BME280;3707;43.618;25.342;2024-01-16T03:06:30;98864.16;;;4.57;100.00
7333;BME280;3707;43.618;25.342;2024-01-16T03:08:57;98872.97;;;4.69;100.00
7333;BME280;3707;43.618;25.342;2024-01-16T03:11:24;98880.53;;;4.62;100.00
7333;BME280;3707;43.618;25.342;2024-01-16T03:13:51;98872.84;;;4.62;100.00
7333;BME280;3707;43.618;25.342;2024-01-16T03:16:20;98882.03;;;4.50;100.00
7333;BME280;3707;43.618;25.342;2024-01-16T03:18:47;98879.34;;;4.46;100.00
7333;BME280;3707;43.618;25.342;2024-01-16T03:21:13;98861.06;;;4.29;100.00
7333;BME280;3707;43.618;25.342;2024-01-16T03:23:40;98835.31;;;4.23;100.00
7333;BME280;3707;43.618;25.342;2024-01-16T03:26:12;98863.13;;;4.45;100.00
7333;BME280;3707;43.618;25.342;2024-01-16T03:28:39;98909.84;;;4.73;100.00
7333;BME280;3707;43.618;25.342;2024-01-16T03:31:05;98906.50;;;4.77;100.00
7333;BME280;3707;43.618;25.342;2024-01-16T03:33:34;98920.41;;;4.89;100.00
7333;BME280;3707;43.618;25.342;2024-01-16T03:36:01;98901.06;;;4.60;100.00
7333;BME280;3707;43.618;25.342;2024-01-16T03:38:28;98902.91;;;4.69;100.00
7333;BME280;3707;43.618;25.342;2024-01-16T03:40:55;98927.25;;;4.89;100.00
7333;BME280;3707;43.618;25.342;2024-01-16T03:43:22;98931.47;;;4.85;100.00
7333;BME280;3707;43.618;25.342;2024-01-16T03:45:48;98922.06;;;4.86;100.00
7333;BME280;3707;43.618;25.342;2024-01-16T03:48:15;98922.72;;;4.76;100.00
7333;BME280;3707;43.618;25.342;2024-01-16T03:50:43;98931.56;;;4.90;100.00
7333;BME280;3707;43.618;25.342;2024-01-16T03:53:10;98932.16;;;4.77;100.00
7333;BME280;3707;43.618;25.342;2024-01-16T03:55:38;98908.59;;;4.53;100.00
7333;BME280;3707;43.618;25.342;2024-01-16T03:58:04;98913.91;;;4.62;100.00
7333;BME280;3707;43.618;25.342;2024-01-16T04:00:31;98942.19;;;4.65;100.00
7333;BME280;3707;43.618;25.342;2024-01-16T04:02:58;98942.19;;;4.65;100.00
7333;BME280;3707;43.618;25.342;2024-01-16T04:05:25;98869.16;;;4.07;100.00
7333;BME280;3707;43.618;25.342;2024-01-16T04:07:53;98836.63;;;4.03;100.00
7333;BME280;3707;43.618;25.342;2024-01-16T04:10:20;98981.91;;;4.82;100.00
7333;BME280;3707;43.618;25.342;2024-01-16T04:12:47;98988.59;;;4.74;100.00
7333;BME280;3707;43.618;25.342;2024-01-16T04:15:14;98985.81;;;4.65;100.00
7333;BME280;3707;43.618;25.342;2024-01-16T04:17:40;98983.47;;;4.75;100.00
7333;BME280;3707;43.618;25.342;2024-01-16T04:20:08;98899.41;;;4.22;100.00
7333;BME280;3707;43.618;25.342;2024-01-16T04:22:38;98982.91;;;4.90;100.00
7333;BME280;3707;43.618;25.342;2024-01-16T04:25:06;98983.53;;;4.77;100.00
7333;BME280;3707;43.618;25.342;2024-01-16T04:27:33;98918.19;;;4.21;100.00
7333;BME280;3707;43.618;25.342;2024-01-16T04:30:00;99008.94;;;4.65;100.00
7333;BME280;3707;43.618;25.342;2024-01-16T04:32:27;98990.97;;;4.24;100.00
7333;BME280;3707;43.618;25.342;2024-01-16T04:34:53;99036.75;;;4.45;100.00
7333;BME280;3707;43.618;25.342;2024-01-16T04:37:20;99041.06;;;4.47;100.00
7333;BME280;3707;43.618;25.342;2024-01-16T04:39:47;99043.47;;;4.40;100.00
7333;BME280;3707;43.618;25.342;2024-01-16T04:42:15;98999.06;;;4.05;100.00
7333;BME280;3707;43.618;25.342;2024-01-16T04:44:43;99023.25;;;4.16;100.00
7333;BME280;3707;43.618;25.342;2024-01-16T04:47:09;99049.09;;;4.25;100.00
7333;BME280;3707;43.618;25.342;2024-01-16T04:49:37;99056.59;;;4.16;100.00
7333;BME280;3707;43.618;25.342;2024-01-16T04:52:04;99057.41;;;4.14;100.00
7333;BME280;3707;43.618;25.342;2024-01-16T04:54:31;99077.88;;;4.12;100.00
7333;BME280;3707;43.618;25.342;2024-01-16T04:56:58;99082.94;;;4.09;100.00
7333;BME280;3707;43.618;25.342;2024-01-16T04:59:26;98975.59;;;3.54;100.00
7333;BME280;3707;43.618;25.342;2024-01-16T05:01:53;99103.63;;;4.17;100.00
7333;BME280;3707;43.618;25.342;2024-01-16T05:04:20;99038.69;;;3.83;100.00
7333;BME280;3707;43.618;25.342;2024-01-16T05:06:50;99056.00;;;3.92;100.00
7333;BME280;3707;43.618;25.342;2024-01-16T05:09:17;99123.47;;;4.24;100.00
7333;BME280;3707;43.618;25.342;2024-01-16T05:11:45;99063.94;;;3.68;100.00
7333;BME280;3707;43.618;25.342;2024-01-16T05:14:11;99053.69;;;3.68;100.00
7333;BME280;3707;43.618;25.342;2024-01-16T05:16:39;99148.13;;;4.17;100.00
7333;BME280;3707;43.618;25.342;2024-01-16T05:19:06;99150.50;;;4.11;100.00
7333;BME280;3707;43.618;25.342;2024-01-16T05:21:33;99154.75;;;4.11;100.00
7333;BME280;3707;43.618;25.342;2024-01-16T05:24:00;99167.13;;;4.25;100.00
7333;BME280;3707;43.618;25.342;2024-01-16T05:26:27;99153.41;;;4.23;100.00
7333;BME280;3707;43.618;25.342;2024-01-16T05:28:53;99164.47;;;4.21;100.00
7333;BME280;3707;43.618;25.342;2024-01-16T05:31:20;99187.34;;;4.13;100.00
7333;BME280;3707;43.618;25.342;2024-01-16T05:33:48;99192.34;;;4.09;100.00
7333;BME280;3707;43.618;25.342;2024-01-16T05:36:15;99194.03;;;4.08;100.00
7333;BME280;3707;43.618;25.342;2024-01-16T05:38:42;99191.63;;;4.14;100.00
7333;BME280;3707;43.618;25.342;2024-01-16T05:41:09;99129.84;;;3.72;100.00
7333;BME280;3707;43.618;25.342;2024-01-16T05:43:36;99122.53;;;3.55;100.00
7333;BME280;3707;43.618;25.342;2024-01-16T05:46:02;99193.81;;;3.99;100.00
7333;BME280;3707;43.618;25.342;2024-01-16T05:48:29;99185.03;;;3.91;100.00
7333;BME280;3707;43.618;25.342;2024-01-16T05:50:57;99213.41;;;3.97;100.00
7333;BME280;3707;43.618;25.342;2024-01-16T05:53:24;99217.78;;;4.01;100.00
7333;BME280;3707;43.618;25.342;2024-01-16T05:55:51;99205.63;;;3.94;100.00
7333;BME280;3707;43.618;25.342;2024-01-16T05:58:19;99189.50;;;3.67;100.00
7333;BME280;3707;43.618;25.342;2024-01-16T06:00:46;99257.81;;;4.27;100.00
7333;BME280;3707;43.618;25.342;2024-01-16T06:03:12;99199.09;;;3.74;100.00
7333;BME280;3707;43.618;25.342;2024-01-16T06:05:39;99268.41;;;4.08;100.00
7333;BME280;3707;43.618;25.342;2024-01-16T06:08:07;99287.16;;;4.06;100.00
7333;BME280;3707;43.618;25.342;2024-01-16T06:10:34;99248.44;;;3.67;100.00
7333;BME280;3707;43.618;25.342;2024-01-16T06:13:01;99270.31;;;3.85;100.00
7333;BME280;3707;43.618;25.342;2024-01-16T06:15:28;99302.91;;;3.88;100.00
7333;BME280;3707;43.618;25.342;2024-01-16T06:17:55;99276.91;;;3.76;100.00
7333;BME280;3707;43.618;25.342;2024-01-16T06:20:21;99266.06;;;3.56;100.00
7333;BME280;3707;43.618;25.342;2024-01-16T06:22:50;99258.25;;;3.52;100.00
7333;BME280;3707;43.618;25.342;2024-01-16T06:25:18;99293.78;;;3.69;100.00
7333;BME280;3707;43.618;25.342;2024-01-16T06:27:44;99355.38;;;4.00;100.00
7333;BME280;3707;43.618;25.342;2024-01-16T06:30:12;99341.84;;;4.05;100.00
7333;BME280;3707;43.618;25.342;2024-01-16T06:32:38;99356.00;;;3.92;100.00
7333;BME280;3707;43.618;25.342;2024-01-16T06:35:06;99377.81;;;4.08;100.00
7333;BME280;3707;43.618;25.342;2024-01-16T06:37:33;99382.06;;;4.06;100.00
7333;BME280;3707;43.618;25.342;2024-01-16T06:39:59;99349.03;;;3.88;100.00
7333;BME280;3707;43.618;25.342;2024-01-16T06:42:28;99370.19;;;4.09;100.00
7333;BME280;3707;43.618;25.342;2024-01-16T06:44:54;99378.88;;;4.14;100.00
7333;BME280;3707;43.618;25.342;2024-01-16T06:47:21;99393.53;;;4.18;100.00
7333;BME280;3707;43.618;25.342;2024-01-16T06:49:49;99386.06;;;4.26;100.00
7333;BME280;3707;43.618;25.342;2024-01-16T06:52:15;99387.00;;;4.29;100.00
7333;BME280;3707;43.618;25.342;2024-01-16T06:54:42;99408.56;;;4.36;100.00
7333;BME280;3707;43.618;25.342;2024-01-16T06:57:09;99427.56;;;4.41;100.00
7333;BME280;3707;43.618;25.342;2024-01-16T06:59:37;99438.38;;;4.61;100.00
7333;BME280;3707;43.618;25.342;2024-01-16T07:02:04;99457.00;;;4.54;100.00
7333;BME280;3707;43.618;25.342;2024-01-16T07:04:31;99436.28;;;4.77;100.00
7333;BME280;3707;43.618;25.342;2024-01-16T07:06:58;99442.75;;;4.65;100.00
7333;BME280;3707;43.618;25.342;2024-01-16T07:09:25;99441.16;;;4.68;100.00
7333;BME280;3707;43.618;25.342;2024-01-16T07:11:52;99459.41;;;4.77;100.00
7333;BME280;3707;43.618;25.342;2024-01-16T07:14:19;99462.72;;;4.75;100.00
7333;BME280;3707;43.618;25.342;2024-01-16T07:16:47;99463.22;;;4.62;100.00
7333;BME280;3707;43.618;25.342;2024-01-16T07:19:15;99450.22;;;4.56;100.00
7333;BME280;3707;43.618;25.342;2024-01-16T07:21:42;99480.03;;;4.80;100.00
7333;BME280;3707;43.618;25.342;2024-01-16T07:24:10;99453.75;;;4.59;100.00
7333;BME280;3707;43.618;25.342;2024-01-16T07:26:37;99491.97;;;4.80;100.00
7333;BME280;3707;43.618;25.342;2024-01-16T07:29:04;99509.47;;;4.93;100.00
7333;BME280;3707;43.618;25.342;2024-01-16T07:31:31;99506.09;;;4.94;100.00
7333;BME280;3707;43.618;25.342;2024-01-16T07:33:59;99497.88;;;5.07;100.00
7333;BME280;3707;43.618;25.342;2024-01-16T07:36:26;99531.31;;;5.09;100.00
7333;BME280;3707;43.618;25.342;2024-01-16T07:38:53;99554.97;;;4.97;100.00
7333;BME280;3707;43.618;25.342;2024-01-16T07:41:20;99507.63;;;4.89;100.00
7333;BME280;3707;43.618;25.342;2024-01-16T07:43:46;99427.28;;;4.62;100.00
7333;BME280;3707;43.618;25.342;2024-01-16T07:46:13;99563.34;;;5.21;100.00
7333;BME280;3707;43.618;25.342;2024-01-16T07:48:41;99524.22;;;5.00;100.00
7333;BME280;3707;43.618;25.342;2024-01-16T07:51:09;99550.28;;;5.14;100.00
7333;BME280;3707;43.618;25.342;2024-01-16T07:53:36;99547.78;;;5.15;100.00
7333;BME280;3707;43.618;25.342;2024-01-16T07:56:03;99551.22;;;5.16;100.00
7333;BME280;3707;43.618;25.342;2024-01-16T07:58:30;99534.13;;;5.16;100.00
7333;BME280;3707;43.618;25.342;2024-01-16T08:00:57;99564.56;;;5.34;100.00
7333;BME280;3707;43.618;25.342;2024-01-16T08:03:24;99564.56;;;5.34;100.00
7333;BME280;3707;43.618;25.342;2024-01-16T08:05:51;99586.09;;;5.37;100.00
7333;BME280;3707;43.618;25.342;2024-01-16T08:08:19;99584.56;;;5.44;100.00
7333;BME280;3707;43.618;25.342;2024-01-16T08:10:46;99596.31;;;5.34;100.00
7333;BME280;3707;43.618;25.342;2024-01-16T08:13:13;99577.06;;;5.20;100.00
7333;BME280;3707;43.618;25.342;2024-01-16T08:15:39;99593.44;;;5.25;100.00
7333;BME280;3707;43.618;25.342;2024-01-16T08:18:06;99608.72;;;5.49;100.00
7333;BME280;3707;43.618;25.342;2024-01-16T08:20:33;99594.97;;;5.48;99.66
7333;BME280;3707;43.618;25.342;2024-01-16T08:22:59;99625.41;;;5.65;96.42
7333;BME280;3707;43.618;25.342;2024-01-16T08:25:28;99609.75;;;5.57;96.39
7333;BME280;3707;43.618;25.342;2024-01-16T08:27:54;99632.72;;;5.81;94.78
7333;BME280;3707;43.618;25.342;2024-01-16T08:30:21;99644.97;;;5.89;94.09
7333;BME280;3707;43.618;25.342;2024-01-16T08:32:48;99653.72;;;5.96;92.74
7333;BME280;3707;43.618;25.342;2024-01-16T08:35:15;99671.81;;;5.69;93.46
7333;BME280;3707;43.618;25.342;2024-01-16T08:37:41;99567.47;;;5.15;93.98
7333;BME280;3707;43.618;25.342;2024-01-16T08:40:09;99667.97;;;5.85;93.86
7333;BME280;3707;43.618;25.342;2024-01-16T08:42:38;99641.16;;;5.77;94.59
7333;BME280;3707;43.618;25.342;2024-01-16T08:45:05;99645.66;;;5.84;93.51
7333;BME280;3707;43.618;25.342;2024-01-16T08:47:32;99674.34;;;5.68;93.86
7333;BME280;3707;43.618;25.342;2024-01-16T08:49:59;99657.72;;;5.55;93.89
7333;BME280;3707;43.618;25.342;2024-01-16T08:52:27;99686.66;;;5.78;95.54
7333;BME280;3707;43.618;25.342;2024-01-16T08:54:54;99702.03;;;5.76;95.10
7333;BME280;3707;43.618;25.342;2024-01-16T08:57:21;99699.47;;;5.76;96.29
7333;BME280;3707;43.618;25.342;2024-01-16T08:59:49;99691.16;;;5.57;96.23
7333;BME280;3707;43.618;25.342;2024-01-16T09:02:16;99700.78;;;5.62;96.98
7333;BME280;3707;43.618;25.342;2024-01-16T09:04:42;99708.69;;;5.70;96.18
7333;BME280;3707;43.618;25.342;2024-01-16T09:07:09;99694.50;;;5.53;96.89
7333;BME280;3707;43.618;25.342;2024-01-16T09:09:36;99721.19;;;5.56;96.88
7333;BME280;3707;43.618;25.342;2024-01-16T09:12:04;99749.50;;;5.58;96.70
7333;BME280;3707;43.618;25.342;2024-01-16T09:14:30;99711.84;;;5.60;97.49
7333;BME280;3707;43.618;25.342;2024-01-16T09:16:58;99721.81;;;5.79;96.84
7333;BME280;3707;43.618;25.342;2024-01-16T09:19:25;99741.47;;;6.07;95.49
7333;BME280;3707;43.618;25.342;2024-01-16T09:21:52;99745.56;;;5.98;93.55
7333;BME280;3707;43.618;25.342;2024-01-16T09:24:19;99743.94;;;6.02;94.09
7333;BME280;3707;43.618;25.342;2024-01-16T09:26:46;99735.84;;;6.20;93.26
7333;BME280;3707;43.618;25.342;2024-01-16T09:29:13;99745.28;;;6.21;93.21
7333;BME280;3707;43.618;25.342;2024-01-16T09:31:41;99744.72;;;6.31;92.36
7333;BME280;3707;43.618;25.342;2024-01-16T09:34:10;99738.09;;;6.40;90.91
7333;BME280;3707;43.618;25.342;2024-01-16T09:36:38;99744.09;;;6.39;89.66
7333;BME280;3707;43.618;25.342;2024-01-16T09:39:06;99761.88;;;6.30;88.40
7333;BME280;3707;43.618;25.342;2024-01-16T09:41:34;99772.41;;;6.39;88.15
7333;BME280;3707;43.618;25.342;2024-01-16T09:44:01;99780.81;;;6.32;88.97
7333;BME280;3707;43.618;25.342;2024-01-16T09:46:30;99775.25;;;6.48;88.98
7333;BME280;3707;43.618;25.342;2024-01-16T09:48:59;99783.59;;;6.40;87.70
7333;BME280;3707;43.618;25.342;2024-01-16T09:51:28;99799.97;;;6.43;87.33
7333;BME280;3707;43.618;25.342;2024-01-16T09:53:55;99765.28;;;5.99;88.55
7333;BME280;3707;43.618;25.342;2024-01-16T09:56:23;99806.03;;;6.14;86.14
7333;BME280;3707;43.618;25.342;2024-01-16T09:58:53;99788.00;;;6.14;85.57
7333;BME280;3707;43.618;25.342;2024-01-16T10:01:21;99789.16;;;6.24;85.17
7333;BME280;3707;43.618;25.342;2024-01-16T10:03:49;99790.78;;;6.20;84.17
7333;BME280;3707;43.618;25.342;2024-01-16T10:06:17;99784.69;;;6.17;84.92
7333;BME280;3707;43.618;25.342;2024-01-16T10:08:47;99800.19;;;6.20;84.54
7333;BME280;3707;43.618;25.342;2024-01-16T10:11:14;99804.97;;;6.06;84.00
7333;BME280;3707;43.618;25.342;2024-01-16T10:13:41;99790.19;;;5.99;84.67
7333;BME280;3707;43.618;25.342;2024-01-16T10:16:07;99823.38;;;6.21;85.49
7333;BME280;3707;43.618;25.342;2024-01-16T10:18:34;99817.78;;;6.34;84.60
7333;BME280;3707;43.618;25.342;2024-01-16T10:21:03;99805.78;;;6.35;83.85
7333;BME280;3707;43.618;25.342;2024-01-16T10:23:31;99820.59;;;6.43;83.40
7333;BME280;3707;43.618;25.342;2024-01-16T10:26:07;99814.47;;;6.38;83.54
7333;BME280;3707;43.618;25.342;2024-01-16T10:28:35;99824.91;;;6.44;83.20
7333;BME280;3707;43.618;25.342;2024-01-16T10:31:02;99821.25;;;6.36;82.53
7333;BME280;3707;43.618;25.342;2024-01-16T10:33:29;99819.25;;;6.26;83.00
7333;BME280;3707;43.618;25.342;2024-01-16T10:36:10;99831.31;;;6.29;82.58
7333;BME280;3707;43.618;25.342;2024-01-16T10:38:37;99836.75;;;6.38;82.47
7333;BME280;3707;43.618;25.342;2024-01-16T10:41:13;99831.69;;;6.41;81.42
7333;BME280;3707;43.618;25.342;2024-01-16T10:43:41;99816.91;;;6.35;80.21
7333;BME280;3707;43.618;25.342;2024-01-16T10:46:10;99810.75;;;6.29;81.13
7333;BME280;3707;43.618;25.342;2024-01-16T10:48:38;99826.97;;;6.26;81.02
7333;BME280;3707;43.618;25.342;2024-01-16T10:51:06;99838.44;;;6.37;80.99
7333;BME280;3707;43.618;25.342;2024-01-16T10:53:34;99845.16;;;6.32;81.70
7333;BME280;3707;43.618;25.342;2024-01-16T10:56:02;99845.50;;;6.44;80.32
7333;BME280;3707;43.618;25.342;2024-01-16T10:58:31;99854.31;;;6.53;80.48
7333;BME280;3707;43.618;25.342;2024-01-16T11:01:01;99844.50;;;6.39;78.58
7333;BME280;3707;43.618;25.342;2024-01-16T11:03:34;99860.31;;;6.52;78.92
7333;BME280;3707;43.618;25.342;2024-01-16T11:06:05;99856.13;;;6.57;79.54
7333;BME280;3707;43.618;25.342;2024-01-16T11:08:34;99854.63;;;6.33;78.49
7333;BME280;3707;43.618;25.342;2024-01-16T11:11:02;99849.56;;;6.36;79.21
7333;BME280;3707;43.618;25.342;2024-01-16T11:13:33;99840.94;;;6.34;79.85
7333;BME280;3707;43.618;25.342;2024-01-16T11:16:00;99857.94;;;6.29;80.90
7333;BME280;3707;43.618;25.342;2024-01-16T11:18:30;99819.25;;;6.26;78.47
7333;BME280;3707;43.618;25.342;2024-01-16T11:20:58;99838.47;;;6.39;78.11
7333;BME280;3707;43.618;25.342;2024-01-16T11:23:25;99845.66;;;6.19;77.93
7333;BME280;3707;43.618;25.342;2024-01-16T11:25:52;99878.25;;;6.19;78.22
7333;BME280;3707;43.618;25.342;2024-01-16T11:28:19;99864.50;;;5.90;78.08
7333;BME280;3707;43.618;25.342;2024-01-16T11:30:47;99879.59;;;6.06;78.89
7333;BME280;3707;43.618;25.342;2024-01-16T11:33:43;99869.09;;;6.00;79.44
7333;BME280;3707;43.618;25.342;2024-01-16T11:39:26;99878.72;;;5.79;81.43
7333;BME280;3707;43.618;25.342;2024-01-16T11:41:56;99896.13;;;5.86;82.78
7333;BME280;3707;43.618;25.342;2024-01-16T11:44:40;99894.47;;;5.88;83.45
7333;BME280;3707;43.618;25.342;2024-01-16T11:47:10;99893.69;;;5.90;83.48
7333;BME280;3707;43.618;25.342;2024-01-16T11:49:41;99887.16;;;5.75;83.91
7333;BME280;3707;43.618;25.342;2024-01-16T11:52:08;99889.78;;;5.76;83.09
7333;BME280;3707;43.618;25.342;2024-01-16T11:54:36;99880.56;;;5.83;83.89
7333;BME280;3707;43.618;25.342;2024-01-16T11:57:25;99893.94;;;5.98;82.94
7333;BME280;3707;43.618;25.342;2024-01-16T12:00:02;99898.44;;;6.05;83.00
7333;BME280;3707;43.618;25.342;2024-01-16T12:02:51;99907.78;;;6.03;82.78
7333;BME280;3707;43.618;25.342;2024-01-16T12:05:18;99912.91;;;6.02;83.21
7333;BME280;3707;43.618;25.342;2024-01-16T12:07:48;99918.53;;;6.17;82.10
7333;BME280;3707;43.618;25.342;2024-01-16T12:10:16;99923.22;;;6.03;82.18
7333;BME280;3707;43.618;25.342;2024-01-16T12:12:44;99899.72;;;5.91;82.60
7333;BME280;3707;43.618;25.342;2024-01-16T12:15:15;99943.69;;;5.98;81.69
7333;BME280;3707;43.618;25.342;2024-01-16T12:17:57;99921.59;;;6.05;82.33
7333;BME280;3707;43.618;25.342;2024-01-16T12:20:26;99924.44;;;6.14;81.63
7333;BME280;3707;43.618;25.342;2024-01-16T12:22:57;99923.06;;;6.25;81.30
7333;BME280;3707;43.618;25.342;2024-01-16T12:25:24;99925.78;;;6.31;79.80
7333;BME280;3707;43.618;25.342;2024-01-16T12:27:58;99896.75;;;6.07;79.45
7333;BME280;3707;43.618;25.342;2024-01-16T12:30:25;99923.59;;;6.15;79.09
7333;BME280;3707;43.618;25.342;2024-01-16T12:33:04;99934.59;;;6.38;77.87
7333;BME280;3707;43.618;25.342;2024-01-16T12:35:33;99937.94;;;6.35;77.33
7333;BME280;3707;43.618;25.342;2024-01-16T12:38:00;99865.34;;;5.89;77.04
7333;BME280;3707;43.618;25.342;2024-01-16T12:40:28;99953.16;;;6.56;78.11
7333;BME280;3707;43.618;25.342;2024-01-16T12:42:55;99958.50;;;6.64;78.10
7333;BME280;3707;43.618;25.342;2024-01-16T12:45:21;99930.22;;;6.35;78.30
7333;BME280;3707;43.618;25.342;2024-01-16T12:47:51;99947.59;;;6.42;76.66
7333;BME280;3707;43.618;25.342;2024-01-16T12:50:21;99984.63;;;6.76;77.54
7333;BME280;3707;43.618;25.342;2024-01-16T12:52:49;99981.16;;;6.74;78.41
7333;BME280;3707;43.618;25.342;2024-01-16T12:55:16;99984.53;;;6.73;79.37
7333;BME280;3707;43.618;25.342;2024-01-16T12:57:44;99979.84;;;6.89;75.98
7333;BME280;3707;43.618;25.342;2024-01-16T13:00:23;99987.50;;;6.86;73.11
7333;BME280;3707;43.618;25.342;2024-01-16T13:02:51;99970.91;;;6.77;72.76
7333;BME280;3707;43.618;25.342;2024-01-16T13:05:18;99992.13;;;6.98;70.61
7333;BME280;3707;43.618;25.342;2024-01-16T13:07:59;100007.38;;;6.90;68.52
7333;BME280;3707;43.618;25.342;2024-01-16T13:10:28;99993.91;;;6.71;68.80
7333;BME280;3707;43.618;25.342;2024-01-16T13:13:11;100009.16;;;6.93;68.35
7333;BME280;3707;43.618;25.342;2024-01-16T13:15:39;100004.41;;;6.77;68.51
7333;BME280;3707;43.618;25.342;2024-01-16T13:18:06;100005.16;;;6.73;69.14
7333;BME280;3707;43.618;25.342;2024-01-16T13:20:32;99999.63;;;6.61;69.67
7333;BME280;3707;43.618;25.342;2024-01-16T13:23:01;99909.94;;;6.18;69.55